sensor_id;sensor_type;location;lat;lon;timestamp;P1;durP1;ratioP1;P2;durP2;ratioP2
73670;SDS011;61968;48.178;11.566;2022-08-03T00:00:48;4.05;;;2.70;;
73670;SDS011;61968;48.178;11.566;2022-08-03T00:03:14;3.45;;;2.80;;
73670;SDS011;61968;48.178;11.566;2022-08-03T00:05:41;3.55;;;2.90;;
73670;SDS011;61968;48.178;11.566;2022-08-03T00:08:10;4.70;;;2.92;;
73670;SDS011;61968;48.178;11.566;2022-08-03T00:10:36;4.22;;;2.80;;
73670;SDS011;61968;48.178;11.566;2022-08-03T00:13:03;3.85;;;2.72;;
73670;SDS011;61968;48.178;11.566;2022-08-03T00:15:29;4.63;;;3.50;;
73670;SDS011;61968;48.178;11.566;2022-08-03T00:17:56;3.30;;;2.85;;
73670;SDS011;61968;48.178;11.566;2022-08-03T00:20:22;6.65;;;3.40;;
73670;SDS011;61968;48.178;11.566;2022-08-03T00:22:49;4.35;;;2.92;;
73670;SDS011;61968;48.178;11.566;2022-08-03T00:25:17;3.20;;;2.75;;
73670;SDS011;61968;48.178;11.566;2022-08-03T00:27:44;3.05;;;2.85;;
73670;SDS011;61968;48.178;11.566;2022-08-03T00:30:10;3.92;;;2.50;;
73670;SDS011;61968;48.178;11.566;2022-08-03T00:32:37;4.10;;;2.85;;
73670;SDS011;61968;48.178;11.566;2022-08-03T00:35:04;3.25;;;2.83;;
73670;SDS011;61968;48.178;11.566;2022-08-03T00:37:31;3.30;;;2.60;;
73670;SDS011;61968;48.178;11.566;2022-08-03T00:39:58;3.35;;;2.80;;
73670;SDS011;61968;48.178;11.566;2022-08-03T00:42:26;4.93;;;3.10;;
73670;SDS011;61968;48.178;11.566;2022-08-03T00:44:52;5.65;;;2.90;;
73670;SDS011;61968;48.178;11.566;2022-08-03T00:47:19;3.67;;;3.05;;
73670;SDS011;61968;48.178;11.566;2022-08-03T00:49:45;5.03;;;2.42;;
73670;SDS011;61968;48.178;11.566;2022-08-03T00:52:12;3.00;;;2.47;;
73670;SDS011;61968;48.178;11.566;2022-08-03T00:54:40;3.83;;;2.70;;
73670;SDS011;61968;48.178;11.566;2022-08-03T00:57:07;4.07;;;2.47;;
73670;SDS011;61968;48.178;11.566;2022-08-03T00:59:35;4.82;;;2.15;;
73670;SDS011;61968;48.178;11.566;2022-08-03T01:02:03;2.53;;;2.33;;
73670;SDS011;61968;48.178;11.566;2022-08-03T01:04:30;3.50;;;2.33;;
73670;SDS011;61968;48.178;11.566;2022-08-03T01:06:59;2.00;;;1.90;;
73670;SDS011;61968;48.178;11.566;2022-08-03T01:09:32;2.40;;;2.20;;
73670;SDS011;61968;48.178;11.566;2022-08-03T01:12:10;3.88;;;2.30;;
73670;SDS011;61968;48.178;11.566;2022-08-03T01:14:45;1.65;;;1.55;;
73670;SDS011;61968;48.178;11.566;2022-08-03T01:17:18;3.17;;;1.83;;
73670;SDS011;61968;48.178;11.566;2022-08-03T01:19:53;4.70;;;1.83;;
73670;SDS011;61968;48.178;11.566;2022-08-03T01:22:35;1.63;;;1.42;;
73670;SDS011;61968;48.178;11.566;2022-08-03T01:25:21;2.83;;;1.85;;
73670;SDS011;61968;48.178;11.566;2022-08-03T01:27:56;2.92;;;1.65;;
73670;SDS011;61968;48.178;11.566;2022-08-03T01:30:29;5.00;;;1.67;;
73670;SDS011;61968;48.178;11.566;2022-08-03T01:32:59;2.03;;;1.42;;
73670;SDS011;61968;48.178;11.566;2022-08-03T01:35:31;2.80;;;1.80;;
73670;SDS011;61968;48.178;11.566;2022-08-03T01:38:01;2.38;;;1.75;;
73670;SDS011;61968;48.178;11.566;2022-08-03T01:40:32;1.98;;;1.65;;
73670;SDS011;61968;48.178;11.566;2022-08-03T01:43:02;4.05;;;2.00;;
73670;SDS011;61968;48.178;11.566;2022-08-03T01:45:32;5.05;;;1.88;;
73670;SDS011;61968;48.178;11.566;2022-08-03T01:48:02;2.20;;;1.90;;
73670;SDS011;61968;48.178;11.566;2022-08-03T01:50:30;5.05;;;2.28;;
73670;SDS011;61968;48.178;11.566;2022-08-03T01:52:58;2.15;;;1.88;;
73670;SDS011;61968;48.178;11.566;2022-08-03T01:55:25;2.10;;;1.88;;
73670;SDS011;61968;48.178;11.566;2022-08-03T01:57:54;3.40;;;2.08;;
73670;SDS011;61968;48.178;11.566;2022-08-03T02:00:21;2.63;;;1.95;;
73670;SDS011;61968;48.178;11.566;2022-08-03T02:02:51;2.13;;;1.80;;
73670;SDS011;61968;48.178;11.566;2022-08-03T02:05:19;2.72;;;1.65;;
73670;SDS011;61968;48.178;11.566;2022-08-03T02:07:47;1.88;;;1.48;;
73670;SDS011;61968;48.178;11.566;2022-08-03T02:10:15;3.78;;;2.00;;
73670;SDS011;61968;48.178;11.566;2022-08-03T02:12:44;2.15;;;1.95;;
73670;SDS011;61968;48.178;11.566;2022-08-03T02:15:13;2.28;;;1.88;;
73670;SDS011;61968;48.178;11.566;2022-08-03T02:17:41;3.20;;;2.10;;
73670;SDS011;61968;48.178;11.566;2022-08-03T02:20:12;2.30;;;1.75;;
73670;SDS011;61968;48.178;11.566;2022-08-03T02:22:39;2.10;;;1.90;;
73670;SDS011;61968;48.178;11.566;2022-08-03T02:25:08;3.05;;;2.03;;
73670;SDS011;61968;48.178;11.566;2022-08-03T02:27:37;3.80;;;2.00;;
73670;SDS011;61968;48.178;11.566;2022-08-03T02:30:06;2.03;;;1.80;;
73670;SDS011;61968;48.178;11.566;2022-08-03T02:32:36;2.42;;;1.98;;
73670;SDS011;61968;48.178;11.566;2022-08-03T02:35:06;2.30;;;1.60;;
73670;SDS011;61968;48.178;11.566;2022-08-03T02:37:39;1.92;;;1.42;;
73670;SDS011;61968;48.178;11.566;2022-08-03T02:40:08;2.08;;;1.92;;
73670;SDS011;61968;48.178;11.566;2022-08-03T02:42:37;2.10;;;1.83;;
73670;SDS011;61968;48.178;11.566;2022-08-03T02:45:06;2.00;;;1.80;;
73670;SDS011;61968;48.178;11.566;2022-08-03T02:47:38;1.85;;;1.70;;
73670;SDS011;61968;48.178;11.566;2022-08-03T02:50:06;3.50;;;1.70;;
73670;SDS011;61968;48.178;11.566;2022-08-03T02:52:36;1.90;;;1.58;;
73670;SDS011;61968;48.178;11.566;2022-08-03T02:55:07;3.92;;;2.00;;
73670;SDS011;61968;48.178;11.566;2022-08-03T02:57:34;2.00;;;1.40;;
73670;SDS011;61968;48.178;11.566;2022-08-03T03:00:03;2.38;;;1.60;;
73670;SDS011;61968;48.178;11.566;2022-08-03T03:02:30;1.85;;;1.65;;
73670;SDS011;61968;48.178;11.566;2022-08-03T03:04:58;2.35;;;1.92;;
73670;SDS011;61968;48.178;11.566;2022-08-03T03:07:26;3.75;;;1.70;;
73670;SDS011;61968;48.178;11.566;2022-08-03T03:09:54;1.48;;;1.38;;
73670;SDS011;61968;48.178;11.566;2022-08-03T03:12:21;1.80;;;1.65;;
73670;SDS011;61968;48.178;11.566;2022-08-03T03:14:48;2.33;;;1.80;;
73670;SDS011;61968;48.178;11.566;2022-08-03T03:17:15;3.33;;;1.77;;
73670;SDS011;61968;48.178;11.566;2022-08-03T03:19:43;4.18;;;1.73;;
73670;SDS011;61968;48.178;11.566;2022-08-03T03:22:10;4.80;;;2.08;;
73670;SDS011;61968;48.178;11.566;2022-08-03T03:24:39;2.72;;;1.95;;
73670;SDS011;61968;48.178;11.566;2022-08-03T03:27:08;1.88;;;1.75;;
73670;SDS011;61968;48.178;11.566;2022-08-03T03:29:35;1.80;;;1.70;;
73670;SDS011;61968;48.178;11.566;2022-08-03T03:32:02;1.90;;;1.80;;
73670;SDS011;61968;48.178;11.566;2022-08-03T03:34:29;1.90;;;1.77;;
73670;SDS011;61968;48.178;11.566;2022-08-03T03:36:56;1.60;;;1.50;;
73670;SDS011;61968;48.178;11.566;2022-08-03T03:39:23;2.15;;;1.85;;
73670;SDS011;61968;48.178;11.566;2022-08-03T03:41:49;2.00;;;1.80;;
73670;SDS011;61968;48.178;11.566;2022-08-03T03:44:17;1.98;;;1.67;;
73670;SDS011;61968;48.178;11.566;2022-08-03T03:46:44;2.08;;;1.88;;
73670;SDS011;61968;48.178;11.566;2022-08-03T03:49:11;1.65;;;1.55;;
73670;SDS011;61968;48.178;11.566;2022-08-03T03:51:37;3.35;;;1.80;;
73670;SDS011;61968;48.178;11.566;2022-08-03T03:54:04;5.78;;;1.77;;
73670;SDS011;61968;48.178;11.566;2022-08-03T03:56:31;2.70;;;1.60;;
73670;SDS011;61968;48.178;11.566;2022-08-03T03:58:58;1.73;;;1.63;;
73670;SDS011;61968;48.178;11.566;2022-08-03T04:01:26;2.42;;;2.05;;
73670;SDS011;61968;48.178;11.566;2022-08-03T04:03:52;2.05;;;1.88;;
73670;SDS011;61968;48.178;11.566;2022-08-03T04:06:19;2.60;;;1.52;;
73670;SDS011;61968;48.178;11.566;2022-08-03T04:09:03;1.75;;;1.60;;
73670;SDS011;61968;48.178;11.566;2022-08-03T04:11:49;3.72;;;1.98;;
73670;SDS011;61968;48.178;11.566;2022-08-03T04:14:18;3.35;;;1.63;;
73670;SDS011;61968;48.178;11.566;2022-08-03T04:16:56;3.53;;;2.08;;
73670;SDS011;61968;48.178;11.566;2022-08-03T04:19:25;2.33;;;1.88;;
73670;SDS011;61968;48.178;11.566;2022-08-03T04:21:59;2.47;;;1.50;;
73670;SDS011;61968;48.178;11.566;2022-08-03T04:24:31;2.13;;;1.77;;
73670;SDS011;61968;48.178;11.566;2022-08-03T04:27:01;2.33;;;1.92;;
73670;SDS011;61968;48.178;11.566;2022-08-03T04:29:29;1.40;;;1.30;;
73670;SDS011;61968;48.178;11.566;2022-08-03T04:32:01;1.83;;;1.73;;
73670;SDS011;61968;48.178;11.566;2022-08-03T04:34:30;2.00;;;1.80;;
73670;SDS011;61968;48.178;11.566;2022-08-03T04:36:58;2.58;;;1.55;;
73670;SDS011;61968;48.178;11.566;2022-08-03T04:39:27;2.35;;;1.35;;
73670;SDS011;61968;48.178;11.566;2022-08-03T04:41:57;1.40;;;1.30;;
73670;SDS011;61968;48.178;11.566;2022-08-03T04:44:26;3.38;;;1.20;;
73670;SDS011;61968;48.178;11.566;2022-08-03T04:46:54;4.28;;;1.60;;
73670;SDS011;61968;48.178;11.566;2022-08-03T04:49:23;1.73;;;1.33;;
73670;SDS011;61968;48.178;11.566;2022-08-03T04:51:50;2.80;;;2.42;;
73670;SDS011;61968;48.178;11.566;2022-08-03T04:54:18;2.30;;;2.08;;
73670;SDS011;61968;48.178;11.566;2022-08-03T04:56:44;4.85;;;2.03;;
73670;SDS011;61968;48.178;11.566;2022-08-03T04:59:11;3.55;;;1.85;;
73670;SDS011;61968;48.178;11.566;2022-08-03T05:01:38;3.08;;;1.58;;
73670;SDS011;61968;48.178;11.566;2022-08-03T05:04:06;2.40;;;1.35;;
73670;SDS011;61968;48.178;11.566;2022-08-03T05:06:34;2.13;;;1.60;;
73670;SDS011;61968;48.178;11.566;2022-08-03T05:09:00;2.22;;;1.58;;
73670;SDS011;61968;48.178;11.566;2022-08-03T05:11:27;2.00;;;1.42;;
73670;SDS011;61968;48.178;11.566;2022-08-03T05:13:54;2.65;;;2.05;;
73670;SDS011;61968;48.178;11.566;2022-08-03T05:16:20;2.65;;;2.10;;
73670;SDS011;61968;48.178;11.566;2022-08-03T05:18:47;5.93;;;2.30;;
73670;SDS011;61968;48.178;11.566;2022-08-03T05:21:13;2.33;;;2.10;;
73670;SDS011;61968;48.178;11.566;2022-08-03T05:23:42;2.10;;;1.90;;
73670;SDS011;61968;48.178;11.566;2022-08-03T05:26:09;3.60;;;1.70;;
73670;SDS011;61968;48.178;11.566;2022-08-03T05:28:36;1.75;;;1.27;;
73670;SDS011;61968;48.178;11.566;2022-08-03T05:31:03;2.33;;;1.88;;
73670;SDS011;61968;48.178;11.566;2022-08-03T05:33:30;3.22;;;1.50;;
73670;SDS011;61968;48.178;11.566;2022-08-03T05:35:56;2.33;;;1.70;;
73670;SDS011;61968;48.178;11.566;2022-08-03T05:38:23;1.95;;;1.70;;
73670;SDS011;61968;48.178;11.566;2022-08-03T05:40:51;1.60;;;1.50;;
73670;SDS011;61968;48.178;11.566;2022-08-03T05:43:18;2.08;;;1.45;;
73670;SDS011;61968;48.178;11.566;2022-08-03T05:45:44;1.55;;;1.40;;
73670;SDS011;61968;48.178;11.566;2022-08-03T05:48:11;2.50;;;1.58;;
73670;SDS011;61968;48.178;11.566;2022-08-03T05:50:37;1.23;;;1.13;;
73670;SDS011;61968;48.178;11.566;2022-08-03T05:53:04;1.73;;;1.48;;
73670;SDS011;61968;48.178;11.566;2022-08-03T05:55:30;1.52;;;1.40;;
73670;SDS011;61968;48.178;11.566;2022-08-03T05:57:58;2.05;;;1.45;;
73670;SDS011;61968;48.178;11.566;2022-08-03T06:00:26;1.88;;;1.40;;
73670;SDS011;61968;48.178;11.566;2022-08-03T06:02:52;1.30;;;1.20;;
73670;SDS011;61968;48.178;11.566;2022-08-03T06:05:19;7.60;;;1.63;;
73670;SDS011;61968;48.178;11.566;2022-08-03T06:07:45;2.13;;;1.35;;
73670;SDS011;61968;48.178;11.566;2022-08-03T06:10:12;1.08;;;1.00;;
73670;SDS011;61968;48.178;11.566;2022-08-03T06:12:38;1.60;;;1.50;;
73670;SDS011;61968;48.178;11.566;2022-08-03T06:15:07;1.42;;;1.33;;
73670;SDS011;61968;48.178;11.566;2022-08-03T06:17:42;1.10;;;1.10;;
73670;SDS011;61968;48.178;11.566;2022-08-03T06:20:10;1.58;;;1.48;;
73670;SDS011;61968;48.178;11.566;2022-08-03T06:22:37;3.40;;;2.72;;
73670;SDS011;61968;48.178;11.566;2022-08-03T06:25:04;2.13;;;1.70;;
73670;SDS011;61968;48.178;11.566;2022-08-03T06:27:31;1.58;;;1.48;;
73670;SDS011;61968;48.178;11.566;2022-08-03T06:29:57;1.75;;;1.40;;
73670;SDS011;61968;48.178;11.566;2022-08-03T06:32:25;1.40;;;1.30;;
73670;SDS011;61968;48.178;11.566;2022-08-03T06:34:52;1.27;;;1.17;;
73670;SDS011;61968;48.178;11.566;2022-08-03T06:37:18;2.05;;;1.52;;
73670;SDS011;61968;48.178;11.566;2022-08-03T06:39:45;0.95;;;0.90;;
73670;SDS011;61968;48.178;11.566;2022-08-03T06:42:11;1.20;;;1.10;;
73670;SDS011;61968;48.178;11.566;2022-08-03T06:44:37;2.38;;;1.63;;
73670;SDS011;61968;48.178;11.566;2022-08-03T06:47:04;4.47;;;1.55;;
73670;SDS011;61968;48.178;11.566;2022-08-03T06:49:32;1.17;;;1.08;;
73670;SDS011;61968;48.178;11.566;2022-08-03T06:51:58;6.03;;;2.15;;
73670;SDS011;61968;48.178;11.566;2022-08-03T06:54:25;2.25;;;1.55;;
73670;SDS011;61968;48.178;11.566;2022-08-03T06:56:51;1.48;;;1.38;;
73670;SDS011;61968;48.178;11.566;2022-08-03T06:59:19;1.00;;;1.00;;
73670;SDS011;61968;48.178;11.566;2022-08-03T07:01:45;1.05;;;0.75;;
73670;SDS011;61968;48.178;11.566;2022-08-03T07:04:11;2.13;;;1.10;;
73670;SDS011;61968;48.178;11.566;2022-08-03T07:06:39;2.88;;;1.15;;
73670;SDS011;61968;48.178;11.566;2022-08-03T07:09:06;0.98;;;0.98;;
73670;SDS011;61968;48.178;11.566;2022-08-03T07:11:32;1.05;;;1.00;;
73670;SDS011;61968;48.178;11.566;2022-08-03T07:13:59;2.60;;;1.70;;
73670;SDS011;61968;48.178;11.566;2022-08-03T07:16:25;3.95;;;1.60;;
73670;SDS011;61968;48.178;11.566;2022-08-03T07:18:52;3.63;;;1.10;;
73670;SDS011;61968;48.178;11.566;2022-08-03T07:21:18;1.45;;;1.35;;
73670;SDS011;61968;48.178;11.566;2022-08-03T07:23:46;1.70;;;1.30;;
73670;SDS011;61968;48.178;11.566;2022-08-03T07:26:13;1.50;;;1.40;;
73670;SDS011;61968;48.178;11.566;2022-08-03T07:28:39;1.13;;;1.02;;
73670;SDS011;61968;48.178;11.566;2022-08-03T07:31:05;1.55;;;1.45;;
73670;SDS011;61968;48.178;11.566;2022-08-03T07:33:32;1.92;;;1.20;;
73670;SDS011;61968;48.178;11.566;2022-08-03T07:35:59;1.40;;;1.27;;
73670;SDS011;61968;48.178;11.566;2022-08-03T07:38:25;2.33;;;1.15;;
73670;SDS011;61968;48.178;11.566;2022-08-03T07:40:54;1.73;;;1.13;;
73670;SDS011;61968;48.178;11.566;2022-08-03T07:43:20;1.25;;;0.82;;
73670;SDS011;61968;48.178;11.566;2022-08-03T07:45:48;1.08;;;1.08;;
73670;SDS011;61968;48.178;11.566;2022-08-03T07:48:14;1.98;;;0.93;;
73670;SDS011;61968;48.178;11.566;2022-08-03T07:50:41;1.25;;;1.08;;
73670;SDS011;61968;48.178;11.566;2022-08-03T07:53:07;2.55;;;1.48;;
73670;SDS011;61968;48.178;11.566;2022-08-03T07:55:34;1.30;;;1.10;;
73670;SDS011;61968;48.178;11.566;2022-08-03T07:58:03;1.25;;;1.13;;
73670;SDS011;61968;48.178;11.566;2022-08-03T08:00:31;1.20;;;0.98;;
73670;SDS011;61968;48.178;11.566;2022-08-03T08:02:58;0.90;;;0.90;;
73670;SDS011;61968;48.178;11.566;2022-08-03T08:05:25;1.10;;;1.00;;
73670;SDS011;61968;48.178;11.566;2022-08-03T08:07:53;3.17;;;1.38;;
73670;SDS011;61968;48.178;11.566;2022-08-03T08:10:20;1.67;;;1.05;;
73670;SDS011;61968;48.178;11.566;2022-08-03T08:12:47;1.23;;;1.10;;
73670;SDS011;61968;48.178;11.566;2022-08-03T08:15:14;0.93;;;0.93;;
73670;SDS011;61968;48.178;11.566;2022-08-03T08:17:42;1.63;;;1.05;;
73670;SDS011;61968;48.178;11.566;2022-08-03T08:20:10;1.35;;;1.13;;
73670;SDS011;61968;48.178;11.566;2022-08-03T08:22:40;1.27;;;1.17;;
73670;SDS011;61968;48.178;11.566;2022-08-03T08:25:07;2.50;;;1.00;;
73670;SDS011;61968;48.178;11.566;2022-08-03T08:27:39;0.95;;;0.90;;
73670;SDS011;61968;48.178;11.566;2022-08-03T08:30:06;3.10;;;1.00;;
73670;SDS011;61968;48.178;11.566;2022-08-03T08:32:35;1.23;;;1.10;;
73670;SDS011;61968;48.178;11.566;2022-08-03T08:35:02;1.05;;;1.00;;
73670;SDS011;61968;48.178;11.566;2022-08-03T08:37:29;1.02;;;1.02;;
73670;SDS011;61968;48.178;11.566;2022-08-03T08:39:55;2.05;;;1.00;;
73670;SDS011;61968;48.178;11.566;2022-08-03T08:42:22;0.80;;;0.65;;
73670;SDS011;61968;48.178;11.566;2022-08-03T08:44:48;1.40;;;1.08;;
73670;SDS011;61968;48.178;11.566;2022-08-03T08:47:15;0.95;;;0.80;;
73670;SDS011;61968;48.178;11.566;2022-08-03T08:49:45;0.95;;;0.95;;
73670;SDS011;61968;48.178;11.566;2022-08-03T08:52:13;0.77;;;0.77;;
73670;SDS011;61968;48.178;11.566;2022-08-03T08:54:40;2.45;;;0.88;;
73670;SDS011;61968;48.178;11.566;2022-08-03T08:57:08;0.85;;;0.85;;
73670;SDS011;61968;48.178;11.566;2022-08-03T08:59:36;2.75;;;1.30;;
73670;SDS011;61968;48.178;11.566;2022-08-03T09:02:03;0.95;;;0.80;;
73670;SDS011;61968;48.178;11.566;2022-08-03T09:04:29;2.42;;;1.10;;
73670;SDS011;61968;48.178;11.566;2022-08-03T09:06:57;1.05;;;0.80;;
73670;SDS011;61968;48.178;11.566;2022-08-03T09:09:24;1.33;;;1.05;;
73670;SDS011;61968;48.178;11.566;2022-08-03T09:11:50;1.83;;;1.30;;
73670;SDS011;61968;48.178;11.566;2022-08-03T09:14:17;1.50;;;1.02;;
73670;SDS011;61968;48.178;11.566;2022-08-03T09:16:54;0.63;;;0.63;;
73670;SDS011;61968;48.178;11.566;2022-08-03T09:19:24;1.52;;;1.42;;
73670;SDS011;61968;48.178;11.566;2022-08-03T09:22:05;1.17;;;1.08;;
73670;SDS011;61968;48.178;11.566;2022-08-03T09:24:33;1.55;;;1.45;;
73670;SDS011;61968;48.178;11.566;2022-08-03T09:27:00;0.95;;;0.95;;
73670;SDS011;61968;48.178;11.566;2022-08-03T09:29:29;1.13;;;1.02;;
73670;SDS011;61968;48.178;11.566;2022-08-03T09:31:58;1.08;;;0.85;;
73670;SDS011;61968;48.178;11.566;2022-08-03T09:34:26;0.80;;;0.80;;
73670;SDS011;61968;48.178;11.566;2022-08-03T09:36:53;0.73;;;0.70;;
73670;SDS011;61968;48.178;11.566;2022-08-03T09:39:23;0.98;;;0.98;;
73670;SDS011;61968;48.178;11.566;2022-08-03T09:42:03;1.20;;;1.10;;
73670;SDS011;61968;48.178;11.566;2022-08-03T09:44:35;1.05;;;0.95;;
73670;SDS011;61968;48.178;11.566;2022-08-03T09:47:02;1.00;;;1.00;;
73670;SDS011;61968;48.178;11.566;2022-08-03T09:49:30;1.05;;;0.95;;
73670;SDS011;61968;48.178;11.566;2022-08-03T09:51:59;2.50;;;1.17;;
73670;SDS011;61968;48.178;11.566;2022-08-03T09:54:28;1.70;;;1.00;;
73670;SDS011;61968;48.178;11.566;2022-08-03T09:56:56;2.78;;;1.48;;
73670;SDS011;61968;48.178;11.566;2022-08-03T09:59:24;1.40;;;0.98;;
73670;SDS011;61968;48.178;11.566;2022-08-03T10:01:52;1.13;;;1.10;;
73670;SDS011;61968;48.178;11.566;2022-08-03T10:04:19;1.20;;;0.85;;
73670;SDS011;61968;48.178;11.566;2022-08-03T10:07:00;1.83;;;0.98;;
73670;SDS011;61968;48.178;11.566;2022-08-03T10:09:29;1.20;;;1.10;;
73670;SDS011;61968;48.178;11.566;2022-08-03T10:11:56;3.78;;;1.27;;
73670;SDS011;61968;48.178;11.566;2022-08-03T10:14:23;1.55;;;0.90;;
73670;SDS011;61968;48.178;11.566;2022-08-03T10:16:54;0.95;;;0.90;;
73670;SDS011;61968;48.178;11.566;2022-08-03T10:19:20;0.77;;;0.77;;
73670;SDS011;61968;48.178;11.566;2022-08-03T10:21:48;1.05;;;0.95;;
73670;SDS011;61968;48.178;11.566;2022-08-03T10:24:19;1.17;;;0.70;;
73670;SDS011;61968;48.178;11.566;2022-08-03T10:26:51;0.70;;;0.70;;
73670;SDS011;61968;48.178;11.566;2022-08-03T10:29:23;1.33;;;0.93;;
73670;SDS011;61968;48.178;11.566;2022-08-03T10:31:53;1.83;;;1.30;;
73670;SDS011;61968;48.178;11.566;2022-08-03T10:34:24;0.90;;;0.88;;
73670;SDS011;61968;48.178;11.566;2022-08-03T10:36:54;0.60;;;0.60;;
73670;SDS011;61968;48.178;11.566;2022-08-03T10:39:24;0.93;;;0.88;;
73670;SDS011;61968;48.178;11.566;2022-08-03T10:41:55;1.33;;;1.00;;
73670;SDS011;61968;48.178;11.566;2022-08-03T10:44:23;1.05;;;0.80;;
73670;SDS011;61968;48.178;11.566;2022-08-03T10:46:54;0.80;;;0.80;;
73670;SDS011;61968;48.178;11.566;2022-08-03T10:49:21;4.00;;;0.60;;
73670;SDS011;61968;48.178;11.566;2022-08-03T10:51:49;1.20;;;1.10;;
73670;SDS011;61968;48.178;11.566;2022-08-03T10:57:42;0.63;;;0.63;;
73670;SDS011;61968;48.178;11.566;2022-08-03T11:00:10;0.65;;;0.65;;
73670;SDS011;61968;48.178;11.566;2022-08-03T11:05:31;0.95;;;0.70;;
73670;SDS011;61968;48.178;11.566;2022-08-03T11:08:21;0.77;;;0.77;;
73670;SDS011;61968;48.178;11.566;2022-08-03T11:10:49;2.50;;;1.00;;
73670;SDS011;61968;48.178;11.566;2022-08-03T11:13:19;4.85;;;0.70;;
73670;SDS011;61968;48.178;11.566;2022-08-03T11:15:48;0.82;;;0.80;;
73670;SDS011;61968;48.178;11.566;2022-08-03T11:18:16;1.23;;;0.90;;
73670;SDS011;61968;48.178;11.566;2022-08-03T11:20:44;0.63;;;0.50;;
73670;SDS011;61968;48.178;11.566;2022-08-03T11:23:12;0.68;;;0.68;;
73670;SDS011;61968;48.178;11.566;2022-08-03T11:28:35;2.97;;;2.22;;
73670;SDS011;61968;48.178;11.566;2022-08-03T11:34:22;0.70;;;0.65;;
73670;SDS011;61968;48.178;11.566;2022-08-03T11:39:47;0.73;;;0.70;;
73670;SDS011;61968;48.178;11.566;2022-08-03T11:45:13;0.57;;;0.57;;
73670;SDS011;61968;48.178;11.566;2022-08-03T11:47:40;0.77;;;0.77;;
73670;SDS011;61968;48.178;11.566;2022-08-03T11:50:08;0.98;;;0.98;;
73670;SDS011;61968;48.178;11.566;2022-08-03T11:52:36;0.82;;;0.82;;
73670;SDS011;61968;48.178;11.566;2022-08-03T11:55:16;0.80;;;0.80;;
73670;SDS011;61968;48.178;11.566;2022-08-03T11:57:44;1.10;;;0.70;;
73670;SDS011;61968;48.178;11.566;2022-08-03T12:00:26;2.95;;;0.88;;
73670;SDS011;61968;48.178;11.566;2022-08-03T12:03:04;1.27;;;0.90;;
73670;SDS011;61968;48.178;11.566;2022-08-03T12:05:32;0.70;;;0.70;;
73670;SDS011;61968;48.178;11.566;2022-08-03T12:07:59;1.50;;;0.90;;
73670;SDS011;61968;48.178;11.566;2022-08-03T12:10:26;0.73;;;0.50;;
73670;SDS011;61968;48.178;11.566;2022-08-03T12:12:54;6.10;;;4.57;;
73670;SDS011;61968;48.178;11.566;2022-08-03T12:15:23;1.50;;;1.40;;
73670;SDS011;61968;48.178;11.566;2022-08-03T12:17:52;2.35;;;0.75;;
73670;SDS011;61968;48.178;11.566;2022-08-03T12:20:20;0.60;;;0.60;;
73670;SDS011;61968;48.178;11.566;2022-08-03T12:22:47;0.80;;;0.80;;
73670;SDS011;61968;48.178;11.566;2022-08-03T12:25:19;0.90;;;0.80;;
73670;SDS011;61968;48.178;11.566;2022-08-03T12:27:47;1.00;;;0.90;;
73670;SDS011;61968;48.178;11.566;2022-08-03T12:30:14;2.65;;;1.77;;
73670;SDS011;61968;48.178;11.566;2022-08-03T12:32:42;2.35;;;1.42;;
73670;SDS011;61968;48.178;11.566;2022-08-03T12:35:09;2.15;;;1.13;;
73670;SDS011;61968;48.178;11.566;2022-08-03T12:37:36;0.70;;;0.70;;
73670;SDS011;61968;48.178;11.566;2022-08-03T12:40:03;1.05;;;0.95;;
73670;SDS011;61968;48.178;11.566;2022-08-03T12:42:31;2.15;;;0.90;;
73670;SDS011;61968;48.178;11.566;2022-08-03T12:44:58;1.17;;;1.08;;
73670;SDS011;61968;48.178;11.566;2022-08-03T12:47:24;0.98;;;0.98;;
73670;SDS011;61968;48.178;11.566;2022-08-03T12:49:52;2.65;;;1.20;;
73670;SDS011;61968;48.178;11.566;2022-08-03T12:52:21;6.63;;;1.13;;
73670;SDS011;61968;48.178;11.566;2022-08-03T12:54:53;1.15;;;0.60;;
73670;SDS011;61968;48.178;11.566;2022-08-03T12:57:21;1.48;;;0.80;;
73670;SDS011;61968;48.178;11.566;2022-08-03T12:59:48;0.88;;;0.88;;
73670;SDS011;61968;48.178;11.566;2022-08-03T13:02:15;1.63;;;0.98;;
73670;SDS011;61968;48.178;11.566;2022-08-03T13:04:43;0.90;;;0.90;;
73670;SDS011;61968;48.178;11.566;2022-08-03T13:07:13;1.02;;;0.93;;
73670;SDS011;61968;48.178;11.566;2022-08-03T13:09:41;0.98;;;0.90;;
73670;SDS011;61968;48.178;11.566;2022-08-03T13:12:09;1.30;;;0.80;;
73670;SDS011;61968;48.178;11.566;2022-08-03T13:14:36;1.20;;;0.95;;
73670;SDS011;61968;48.178;11.566;2022-08-03T13:17:03;1.20;;;1.05;;
73670;SDS011;61968;48.178;11.566;2022-08-03T13:19:31;1.63;;;0.70;;
73670;SDS011;61968;48.178;11.566;2022-08-03T13:21:57;1.10;;;1.00;;
73670;SDS011;61968;48.178;11.566;2022-08-03T13:24:25;3.78;;;1.10;;
73670;SDS011;61968;48.178;11.566;2022-08-03T13:26:52;1.35;;;0.98;;
73670;SDS011;61968;48.178;11.566;2022-08-03T13:29:18;0.70;;;0.70;;
73670;SDS011;61968;48.178;11.566;2022-08-03T13:31:45;0.77;;;0.77;;
73670;SDS011;61968;48.178;11.566;2022-08-03T13:34:11;1.13;;;1.08;;
73670;SDS011;61968;48.178;11.566;2022-08-03T13:36:38;0.75;;;0.75;;
73670;SDS011;61968;48.178;11.566;2022-08-03T13:39:04;2.22;;;1.20;;
73670;SDS011;61968;48.178;11.566;2022-08-03T13:41:32;7.53;;;2.60;;
73670;SDS011;61968;48.178;11.566;2022-08-03T13:43:58;1.35;;;0.98;;
73670;SDS011;61968;48.178;11.566;2022-08-03T13:46:25;2.03;;;0.70;;
73670;SDS011;61968;48.178;11.566;2022-08-03T13:48:51;1.08;;;1.08;;
73670;SDS011;61968;48.178;11.566;2022-08-03T13:51:18;2.00;;;1.80;;
73670;SDS011;61968;48.178;11.566;2022-08-03T13:53:44;1.08;;;0.93;;
73670;SDS011;61968;48.178;11.566;2022-08-03T13:56:11;1.15;;;0.90;;
73670;SDS011;61968;48.178;11.566;2022-08-03T13:58:39;3.38;;;3.08;;
73670;SDS011;61968;48.178;11.566;2022-08-03T14:01:05;2.25;;;2.10;;
73670;SDS011;61968;48.178;11.566;2022-08-03T14:03:31;1.27;;;1.17;;
73670;SDS011;61968;48.178;11.566;2022-08-03T14:05:58;0.77;;;0.77;;
73670;SDS011;61968;48.178;11.566;2022-08-03T14:08:24;1.58;;;0.70;;
73670;SDS011;61968;48.178;11.566;2022-08-03T14:10:51;1.52;;;1.00;;
73670;SDS011;61968;48.178;11.566;2022-08-03T14:13:17;0.80;;;0.80;;
73670;SDS011;61968;48.178;11.566;2022-08-03T14:15:46;3.75;;;1.10;;
73670;SDS011;61968;48.178;11.566;2022-08-03T14:18:12;3.88;;;1.08;;
73670;SDS011;61968;48.178;11.566;2022-08-03T14:20:39;0.90;;;0.90;;
73670;SDS011;61968;48.178;11.566;2022-08-03T14:23:05;1.67;;;1.52;;
73670;SDS011;61968;48.178;11.566;2022-08-03T14:25:32;1.38;;;0.95;;
73670;SDS011;61968;48.178;11.566;2022-08-03T14:27:59;2.95;;;1.13;;
73670;SDS011;61968;48.178;11.566;2022-08-03T14:30:25;1.52;;;1.38;;
73670;SDS011;61968;48.178;11.566;2022-08-03T14:32:53;4.93;;;0.95;;
73670;SDS011;61968;48.178;11.566;2022-08-03T14:35:19;5.72;;;0.90;;
73670;SDS011;61968;48.178;11.566;2022-08-03T14:37:46;1.63;;;0.98;;
73670;SDS011;61968;48.178;11.566;2022-08-03T14:40:12;1.85;;;0.93;;
73670;SDS011;61968;48.178;11.566;2022-08-03T14:42:39;1.23;;;0.90;;
73670;SDS011;61968;48.178;11.566;2022-08-03T14:45:05;1.20;;;1.08;;
73670;SDS011;61968;48.178;11.566;2022-08-03T14:47:33;3.22;;;1.23;;
73670;SDS011;61968;48.178;11.566;2022-08-03T14:50:00;1.10;;;1.00;;
73670;SDS011;61968;48.178;11.566;2022-08-03T14:52:28;4.18;;;1.38;;
73670;SDS011;61968;48.178;11.566;2022-08-03T14:54:55;2.78;;;1.20;;
73670;SDS011;61968;48.178;11.566;2022-08-03T14:57:22;2.55;;;1.33;;